sensor_id;sensor_type;location;lat;lon;timestamp;P1;durP1;ratioP1;P2;durP2;ratioP2
39140;SDS011;24875;48.436;10.298;2024-01-07T00:02:10;10.07;;;4.10;;
39140;SDS011;24875;48.436;10.298;2024-01-07T00:04:36;12.80;;;5.77;;
39140;SDS011;24875;48.436;10.298;2024-01-07T00:07:03;11.37;;;4.53;;
39140;SDS011;24875;48.436;10.298;2024-01-07T00:09:30;11.47;;;4.93;;
39140;SDS011;24875;48.436;10.298;2024-01-07T00:11:57;14.33;;;4.93;;
39140;SDS011;24875;48.436;10.298;2024-01-07T00:14:23;11.77;;;4.53;;
39140;SDS011;24875;48.436;10.298;2024-01-07T00:16:50;13.53;;;5.13;;
39140;SDS011;24875;48.436;10.298;2024-01-07T00:19:18;13.37;;;4.97;;
39140;SDS011;24875;48.436;10.298;2024-01-07T00:21:44;11.23;;;5.33;;
39140;SDS011;24875;48.436;10.298;2024-01-07T00:24:11;10.97;;;5.20;;
39140;SDS011;24875;48.436;10.298;2024-01-07T00:26:37;12.47;;;5.30;;
39140;SDS011;24875;48.436;10.298;2024-01-07T00:29:04;11.63;;;5.10;;
39140;SDS011;24875;48.436;10.298;2024-01-07T00:31:30;12.27;;;4.47;;
39140;SDS011;24875;48.436;10.298;2024-01-07T00:33:57;11.83;;;4.77;;
39140;SDS011;24875;48.436;10.298;2024-01-07T00:36:25;12.20;;;4.60;;
39140;SDS011;24875;48.436;10.298;2024-01-07T00:38:51;9.80;;;4.97;;
39140;SDS011;24875;48.436;10.298;2024-01-07T00:41:18;11.60;;;4.97;;
39140;SDS011;24875;48.436;10.298;2024-01-07T00:43:44;11.97;;;4.87;;
39140;SDS011;24875;48.436;10.298;2024-01-07T00:46:11;12.37;;;5.07;;
39140;SDS011;24875;48.436;10.298;2024-01-07T00:48:37;20.07;;;5.80;;
39140;SDS011;24875;48.436;10.298;2024-01-07T00:51:04;9.53;;;4.60;;
39140;SDS011;24875;48.436;10.298;2024-01-07T00:53:32;11.97;;;4.67;;
39140;SDS011;24875;48.436;10.298;2024-01-07T00:55:58;9.13;;;3.80;;
39140;SDS011;24875;48.436;10.298;2024-01-07T00:58:25;12.07;;;4.80;;
39140;SDS011;24875;48.436;10.298;2024-01-07T01:00:51;11.30;;;4.73;;
39140;SDS011;24875;48.436;10.298;2024-01-07T01:03:19;12.83;;;5.10;;
39140;SDS011;24875;48.436;10.298;2024-01-07T01:05:45;11.10;;;4.37;;
39140;SDS011;24875;48.436;10.298;2024-01-07T01:08:12;10.20;;;4.43;;
39140;SDS011;24875;48.436;10.298;2024-01-07T01:10:40;9.63;;;4.43;;
39140;SDS011;24875;48.436;10.298;2024-01-07T01:13:06;11.63;;;4.37;;
39140;SDS011;24875;48.436;10.298;2024-01-07T01:15:33;10.00;;;3.97;;
39140;SDS011;24875;48.436;10.298;2024-01-07T01:17:59;10.43;;;4.70;;
39140;SDS011;24875;48.436;10.298;2024-01-07T01:20:26;12.23;;;4.73;;
39140;SDS011;24875;48.436;10.298;2024-01-07T01:22:52;8.43;;;3.97;;
39140;SDS011;24875;48.436;10.298;2024-01-07T01:25:19;13.73;;;5.13;;
39140;SDS011;24875;48.436;10.298;2024-01-07T01:27:47;10.80;;;4.83;;
39140;SDS011;24875;48.436;10.298;2024-01-07T01:30:13;11.07;;;4.27;;
39140;SDS011;24875;48.436;10.298;2024-01-07T01:32:41;10.83;;;4.10;;
39140;SDS011;24875;48.436;10.298;2024-01-07T01:35:08;10.40;;;4.83;;
39140;SDS011;24875;48.436;10.298;2024-01-07T01:37:35;12.83;;;4.63;;
39140;SDS011;24875;48.436;10.298;2024-01-07T01:40:02;13.47;;;5.10;;
39140;SDS011;24875;48.436;10.298;2024-01-07T01:42:29;12.03;;;4.53;;
39140;SDS011;24875;48.436;10.298;2024-01-07T01:44:57;11.90;;;4.93;;
39140;SDS011;24875;48.436;10.298;2024-01-07T01:47:26;11.00;;;4.57;;
39140;SDS011;24875;48.436;10.298;2024-01-07T01:49:53;11.53;;;5.17;;
39140;SDS011;24875;48.436;10.298;2024-01-07T01:52:19;14.50;;;5.27;;
39140;SDS011;24875;48.436;10.298;2024-01-07T01:54:46;9.33;;;4.53;;
39140;SDS011;24875;48.436;10.298;2024-01-07T01:57:13;12.17;;;5.07;;
39140;SDS011;24875;48.436;10.298;2024-01-07T01:59:43;10.93;;;4.70;;
39140;SDS011;24875;48.436;10.298;2024-01-07T02:02:10;10.13;;;4.77;;
39140;SDS011;24875;48.436;10.298;2024-01-07T02:04:37;11.20;;;5.90;;
39140;SDS011;24875;48.436;10.298;2024-01-07T02:07:04;13.83;;;5.90;;
39140;SDS011;24875;48.436;10.298;2024-01-07T02:09:30;12.70;;;5.23;;
39140;SDS011;24875;48.436;10.298;2024-01-07T02:12:00;11.53;;;5.10;;
39140;SDS011;24875;48.436;10.298;2024-01-07T02:14:27;12.77;;;4.47;;
39140;SDS011;24875;48.436;10.298;2024-01-07T02:16:54;10.70;;;4.57;;
39140;SDS011;24875;48.436;10.298;2024-01-07T02:19:22;10.93;;;5.33;;
39140;SDS011;24875;48.436;10.298;2024-01-07T02:21:49;14.37;;;5.60;;
39140;SDS011;24875;48.436;10.298;2024-01-07T02:24:18;19.73;;;5.33;;
39140;SDS011;24875;48.436;10.298;2024-01-07T02:26:44;11.87;;;4.63;;
39140;SDS011;24875;48.436;10.298;2024-01-07T02:29:11;14.33;;;5.13;;
39140;SDS011;24875;48.436;10.298;2024-01-07T02:31:37;11.93;;;5.20;;
39140;SDS011;24875;48.436;10.298;2024-01-07T02:34:04;17.70;;;5.97;;
39140;SDS011;24875;48.436;10.298;2024-01-07T02:36:31;12.53;;;5.47;;
39140;SDS011;24875;48.436;10.298;2024-01-07T02:38:57;16.23;;;5.67;;
39140;SDS011;24875;48.436;10.298;2024-01-07T02:41:25;12.37;;;4.83;;
39140;SDS011;24875;48.436;10.298;2024-01-07T02:43:51;13.97;;;4.77;;
39140;SDS011;24875;48.436;10.298;2024-01-07T02:46:19;11.77;;;4.60;;
39140;SDS011;24875;48.436;10.298;2024-01-07T02:48:45;10.37;;;4.53;;
39140;SDS011;24875;48.436;10.298;2024-01-07T02:51:12;16.57;;;6.00;;
39140;SDS011;24875;48.436;10.298;2024-01-07T02:53:38;14.53;;;4.53;;
39140;SDS011;24875;48.436;10.298;2024-01-07T02:56:05;12.47;;;5.27;;
39140;SDS011;24875;48.436;10.298;2024-01-07T02:58:35;12.30;;;5.27;;
39140;SDS011;24875;48.436;10.298;2024-01-07T03:01:01;10.10;;;4.47;;
39140;SDS011;24875;48.436;10.298;2024-01-07T03:03:32;13.83;;;4.80;;
39140;SDS011;24875;48.436;10.298;2024-01-07T03:05:59;11.70;;;5.10;;
39140;SDS011;24875;48.436;10.298;2024-01-07T03:08:25;10.90;;;5.50;;
39140;SDS011;24875;48.436;10.298;2024-01-07T03:10:53;11.13;;;4.87;;
39140;SDS011;24875;48.436;10.298;2024-01-07T03:13:19;9.03;;;4.30;;
39140;SDS011;24875;48.436;10.298;2024-01-07T03:15:47;15.10;;;4.67;;
39140;SDS011;24875;48.436;10.298;2024-01-07T03:18:14;12.27;;;5.17;;
39140;SDS011;24875;48.436;10.298;2024-01-07T03:20:40;9.10;;;4.50;;
39140;SDS011;24875;48.436;10.298;2024-01-07T03:23:07;9.60;;;4.50;;
39140;SDS011;24875;48.436;10.298;2024-01-07T03:25:33;10.57;;;5.27;;
39140;SDS011;24875;48.436;10.298;2024-01-07T03:28:00;11.10;;;5.63;;
39140;SDS011;24875;48.436;10.298;2024-01-07T03:30:26;8.63;;;3.87;;
39140;SDS011;24875;48.436;10.298;2024-01-07T03:32:54;11.73;;;5.13;;
39140;SDS011;24875;48.436;10.298;2024-01-07T03:35:21;10.50;;;4.57;;
39140;SDS011;24875;48.436;10.298;2024-01-07T03:37:49;13.47;;;5.30;;
39140;SDS011;24875;48.436;10.298;2024-01-07T03:40:15;12.30;;;5.47;;
39140;SDS011;24875;48.436;10.298;2024-01-07T03:42:42;9.10;;;4.60;;
39140;SDS011;24875;48.436;10.298;2024-01-07T03:45:08;10.97;;;4.83;;
39140;SDS011;24875;48.436;10.298;2024-01-07T03:47:35;23.43;;;6.00;;
39140;SDS011;24875;48.436;10.298;2024-01-07T03:50:03;11.50;;;4.53;;
39140;SDS011;24875;48.436;10.298;2024-01-07T03:52:30;13.10;;;5.30;;
39140;SDS011;24875;48.436;10.298;2024-01-07T03:54:56;11.37;;;5.17;;
39140;SDS011;24875;48.436;10.298;2024-01-07T03:57:23;14.17;;;5.30;;
39140;SDS011;24875;48.436;10.298;2024-01-07T03:59:49;11.07;;;5.07;;
39140;SDS011;24875;48.436;10.298;2024-01-07T04:02:16;13.83;;;5.63;;
39140;SDS011;24875;48.436;10.298;2024-01-07T04:04:42;11.60;;;5.40;;
39140;SDS011;24875;48.436;10.298;2024-01-07T04:07:10;13.80;;;5.00;;
39140;SDS011;24875;48.436;10.298;2024-01-07T04:09:37;13.57;;;5.30;;
39140;SDS011;24875;48.436;10.298;2024-01-07T04:12:03;10.17;;;4.77;;
39140;SDS011;24875;48.436;10.298;2024-01-07T04:14:30;10.47;;;5.20;;
39140;SDS011;24875;48.436;10.298;2024-01-07T04:16:58;12.47;;;4.87;;
39140;SDS011;24875;48.436;10.298;2024-01-07T04:19:25;11.37;;;4.77;;
39140;SDS011;24875;48.436;10.298;2024-01-07T04:21:51;13.67;;;5.63;;
39140;SDS011;24875;48.436;10.298;2024-01-07T04:24:19;10.73;;;4.70;;
39140;SDS011;24875;48.436;10.298;2024-01-07T04:26:46;12.83;;;5.73;;
39140;SDS011;24875;48.436;10.298;2024-01-07T04:29:12;12.77;;;5.50;;
39140;SDS011;24875;48.436;10.298;2024-01-07T04:31:39;12.67;;;5.67;;
39140;SDS011;24875;48.436;10.298;2024-01-07T04:34:05;13.67;;;6.30;;
39140;SDS011;24875;48.436;10.298;2024-01-07T04:36:32;14.57;;;5.57;;
39140;SDS011;24875;48.436;10.298;2024-01-07T04:38:58;12.73;;;5.60;;
39140;SDS011;24875;48.436;10.298;2024-01-07T04:41:26;15.50;;;5.70;;
39140;SDS011;24875;48.436;10.298;2024-01-07T04:43:52;12.33;;;6.00;;
39140;SDS011;24875;48.436;10.298;2024-01-07T04:46:19;15.87;;;6.13;;
39140;SDS011;24875;48.436;10.298;2024-01-07T04:48:45;13.30;;;5.67;;
39140;SDS011;24875;48.436;10.298;2024-01-07T04:51:12;15.60;;;5.53;;
39140;SDS011;24875;48.436;10.298;2024-01-07T04:53:38;13.60;;;6.70;;
39140;SDS011;24875;48.436;10.298;2024-01-07T04:56:05;12.17;;;5.13;;
39140;SDS011;24875;48.436;10.298;2024-01-07T04:58:34;11.97;;;4.87;;
39140;SDS011;24875;48.436;10.298;2024-01-07T05:01:00;15.07;;;5.90;;
39140;SDS011;24875;48.436;10.298;2024-01-07T05:03:27;13.37;;;5.13;;
39140;SDS011;24875;48.436;10.298;2024-01-07T05:05:53;12.87;;;5.10;;
39140;SDS011;24875;48.436;10.298;2024-01-07T05:08:20;14.30;;;6.53;;
39140;SDS011;24875;48.436;10.298;2024-01-07T05:10:46;10.90;;;5.13;;
39140;SDS011;24875;48.436;10.298;2024-01-07T05:13:13;16.67;;;6.40;;
39140;SDS011;24875;48.436;10.298;2024-01-07T05:15:40;18.87;;;5.37;;
39140;SDS011;24875;48.436;10.298;2024-01-07T05:18:07;11.10;;;5.20;;
39140;SDS011;24875;48.436;10.298;2024-01-07T05:20:34;12.03;;;5.37;;
39140;SDS011;24875;48.436;10.298;2024-01-07T05:23:01;14.23;;;5.73;;
39140;SDS011;24875;48.436;10.298;2024-01-07T05:25:27;13.63;;;5.97;;
39140;SDS011;24875;48.436;10.298;2024-01-07T05:27:54;13.83;;;6.30;;
39140;SDS011;24875;48.436;10.298;2024-01-07T05:30:20;17.93;;;6.73;;
39140;SDS011;24875;48.436;10.298;2024-01-07T05:32:48;14.00;;;6.13;;
39140;SDS011;24875;48.436;10.298;2024-01-07T05:35:15;17.73;;;7.17;;
39140;SDS011;24875;48.436;10.298;2024-01-07T05:37:41;13.53;;;5.80;;
39140;SDS011;24875;48.436;10.298;2024-01-07T05:40:08;16.60;;;7.23;;
39140;SDS011;24875;48.436;10.298;2024-01-07T05:42:35;15.10;;;6.93;;
39140;SDS011;24875;48.436;10.298;2024-01-07T05:45:02;15.97;;;6.50;;
39140;SDS011;24875;48.436;10.298;2024-01-07T05:47:29;15.87;;;6.47;;
39140;SDS011;24875;48.436;10.298;2024-01-07T05:49:57;16.63;;;7.30;;
39140;SDS011;24875;48.436;10.298;2024-01-07T05:52:23;17.30;;;7.20;;
39140;SDS011;24875;48.436;10.298;2024-01-07T05:54:50;17.57;;;5.93;;
39140;SDS011;24875;48.436;10.298;2024-01-07T05:57:16;17.20;;;7.10;;
39140;SDS011;24875;48.436;10.298;2024-01-07T05:59:43;17.23;;;6.53;;
39140;SDS011;24875;48.436;10.298;2024-01-07T06:02:10;19.97;;;7.57;;
39140;SDS011;24875;48.436;10.298;2024-01-07T06:04:37;18.33;;;7.07;;
39140;SDS011;24875;48.436;10.298;2024-01-07T06:07:05;14.83;;;6.53;;
39140;SDS011;24875;48.436;10.298;2024-01-07T06:09:32;16.17;;;7.40;;
39140;SDS011;24875;48.436;10.298;2024-01-07T06:11:59;20.30;;;7.20;;
39140;SDS011;24875;48.436;10.298;2024-01-07T06:14:25;17.07;;;6.83;;
39140;SDS011;24875;48.436;10.298;2024-01-07T06:16:52;18.17;;;6.70;;
39140;SDS011;24875;48.436;10.298;2024-01-07T06:19:18;17.80;;;7.90;;
39140;SDS011;24875;48.436;10.298;2024-01-07T06:21:45;20.03;;;6.93;;
39140;SDS011;24875;48.436;10.298;2024-01-07T06:24:14;16.30;;;6.80;;
39140;SDS011;24875;48.436;10.298;2024-01-07T06:26:40;16.37;;;7.57;;
39140;SDS011;24875;48.436;10.298;2024-01-07T06:29:07;20.83;;;8.43;;
39140;SDS011;24875;48.436;10.298;2024-01-07T06:31:34;20.20;;;8.37;;
39140;SDS011;24875;48.436;10.298;2024-01-07T06:34:01;18.73;;;7.50;;
39140;SDS011;24875;48.436;10.298;2024-01-07T06:36:27;17.70;;;7.67;;
39140;SDS011;24875;48.436;10.298;2024-01-07T06:38:54;18.50;;;7.40;;
39140;SDS011;24875;48.436;10.298;2024-01-07T06:41:22;17.43;;;8.07;;
39140;SDS011;24875;48.436;10.298;2024-01-07T06:43:48;19.67;;;7.27;;
39140;SDS011;24875;48.436;10.298;2024-01-07T06:46:17;15.97;;;7.83;;
39140;SDS011;24875;48.436;10.298;2024-01-07T06:48:44;17.97;;;7.30;;
39140;SDS011;24875;48.436;10.298;2024-01-07T06:51:10;20.67;;;7.10;;
39140;SDS011;24875;48.436;10.298;2024-01-07T06:53:36;15.67;;;6.80;;
39140;SDS011;24875;48.436;10.298;2024-01-07T06:56:03;15.73;;;6.50;;
39140;SDS011;24875;48.436;10.298;2024-01-07T06:58:31;16.13;;;6.57;;
39140;SDS011;24875;48.436;10.298;2024-01-07T07:00:58;21.17;;;7.33;;
39140;SDS011;24875;48.436;10.298;2024-01-07T07:03:24;18.23;;;7.73;;
39140;SDS011;24875;48.436;10.298;2024-01-07T07:05:51;17.40;;;6.93;;
39140;SDS011;24875;48.436;10.298;2024-01-07T07:08:16;14.63;;;6.77;;
39140;SDS011;24875;48.436;10.298;2024-01-07T07:10:43;19.10;;;7.17;;
39140;SDS011;24875;48.436;10.298;2024-01-07T07:13:10;15.23;;;6.20;;
39140;SDS011;24875;48.436;10.298;2024-01-07T07:15:39;14.50;;;6.43;;
39140;SDS011;24875;48.436;10.298;2024-01-07T07:18:06;20.50;;;8.10;;
39140;SDS011;24875;48.436;10.298;2024-01-07T07:20:32;15.80;;;6.70;;
39140;SDS011;24875;48.436;10.298;2024-01-07T07:22:59;16.63;;;6.77;;
39140;SDS011;24875;48.436;10.298;2024-01-07T07:25:26;15.57;;;7.07;;
39140;SDS011;24875;48.436;10.298;2024-01-07T07:27:52;14.40;;;6.50;;
39140;SDS011;24875;48.436;10.298;2024-01-07T07:30:19;17.03;;;7.03;;
39140;SDS011;24875;48.436;10.298;2024-01-07T07:32:47;16.67;;;7.27;;
39140;SDS011;24875;48.436;10.298;2024-01-07T07:35:13;16.83;;;6.87;;
39140;SDS011;24875;48.436;10.298;2024-01-07T07:37:40;17.17;;;6.80;;
39140;SDS011;24875;48.436;10.298;2024-01-07T07:40:07;14.93;;;6.67;;
39140;SDS011;24875;48.436;10.298;2024-01-07T07:42:33;16.63;;;6.47;;
39140;SDS011;24875;48.436;10.298;2024-01-07T07:45:00;13.00;;;6.47;;
39140;SDS011;24875;48.436;10.298;2024-01-07T07:47:27;16.03;;;6.13;;
39140;SDS011;24875;48.436;10.298;2024-01-07T07:49:55;12.57;;;5.73;;
39140;SDS011;24875;48.436;10.298;2024-01-07T07:52:21;12.27;;;5.40;;
39140;SDS011;24875;48.436;10.298;2024-01-07T07:54:50;13.17;;;6.00;;
39140;SDS011;24875;48.436;10.298;2024-01-07T07:57:17;13.97;;;5.47;;
39140;SDS011;24875;48.436;10.298;2024-01-07T07:59:44;15.07;;;6.13;;
39140;SDS011;24875;48.436;10.298;2024-01-07T08:02:11;18.47;;;5.53;;
39140;SDS011;24875;48.436;10.298;2024-01-07T08:04:38;13.57;;;5.77;;
39140;SDS011;24875;48.436;10.298;2024-01-07T08:07:07;18.87;;;6.30;;
39140;SDS011;24875;48.436;10.298;2024-01-07T08:09:34;16.10;;;7.00;;
39140;SDS011;24875;48.436;10.298;2024-01-07T08:12:02;16.27;;;6.23;;
39140;SDS011;24875;48.436;10.298;2024-01-07T08:14:29;12.37;;;6.27;;
39140;SDS011;24875;48.436;10.298;2024-01-07T08:16:55;15.60;;;6.20;;
39140;SDS011;24875;48.436;10.298;2024-01-07T08:19:22;16.07;;;6.47;;
39140;SDS011;24875;48.436;10.298;2024-01-07T08:21:48;13.37;;;6.13;;
39140;SDS011;24875;48.436;10.298;2024-01-07T08:24:16;13.73;;;5.57;;
39140;SDS011;24875;48.436;10.298;2024-01-07T08:26:43;13.47;;;6.07;;
39140;SDS011;24875;48.436;10.298;2024-01-07T08:29:09;12.83;;;6.40;;
39140;SDS011;24875;48.436;10.298;2024-01-07T08:31:36;14.00;;;6.20;;
39140;SDS011;24875;48.436;10.298;2024-01-07T08:34:03;13.30;;;5.80;;
39140;SDS011;24875;48.436;10.298;2024-01-07T08:36:29;12.60;;;5.13;;
39140;SDS011;24875;48.436;10.298;2024-01-07T08:38:56;15.00;;;5.90;;
39140;SDS011;24875;48.436;10.298;2024-01-07T08:41:24;16.33;;;7.40;;
39140;SDS011;24875;48.436;10.298;2024-01-07T08:43:50;12.37;;;5.10;;
39140;SDS011;24875;48.436;10.298;2024-01-07T08:46:17;11.30;;;5.13;;
39140;SDS011;24875;48.436;10.298;2024-01-07T08:48:46;18.73;;;6.17;;
39140;SDS011;24875;48.436;10.298;2024-01-07T08:51:13;12.23;;;5.17;;
39140;SDS011;24875;48.436;10.298;2024-01-07T08:53:39;16.07;;;5.53;;
39140;SDS011;24875;48.436;10.298;2024-01-07T08:56:06;12.60;;;4.83;;
39140;SDS011;24875;48.436;10.298;2024-01-07T08:58:35;12.47;;;5.40;;
39140;SDS011;24875;48.436;10.298;2024-01-07T09:01:02;11.73;;;5.20;;
39140;SDS011;24875;48.436;10.298;2024-01-07T09:03:28;9.80;;;4.67;;
39140;SDS011;24875;48.436;10.298;2024-01-07T09:05:55;9.90;;;4.57;;
39140;SDS011;24875;48.436;10.298;2024-01-07T09:08:21;12.90;;;5.90;;
39140;SDS011;24875;48.436;10.298;2024-01-07T09:10:48;11.83;;;5.67;;
39140;SDS011;24875;48.436;10.298;2024-01-07T09:13:15;10.37;;;4.07;;
39140;SDS011;24875;48.436;10.298;2024-01-07T09:15:43;10.10;;;4.33;;
39140;SDS011;24875;48.436;10.298;2024-01-07T09:18:10;12.93;;;5.50;;
39140;SDS011;24875;48.436;10.298;2024-01-07T09:20:36;11.20;;;4.47;;
39140;SDS011;24875;48.436;10.298;2024-01-07T09:23:03;11.30;;;5.30;;
39140;SDS011;24875;48.436;10.298;2024-01-07T09:25:30;12.03;;;4.33;;
39140;SDS011;24875;48.436;10.298;2024-01-07T09:27:56;9.83;;;4.00;;
39140;SDS011;24875;48.436;10.298;2024-01-07T09:30:23;6.47;;;3.63;;
39140;SDS011;24875;48.436;10.298;2024-01-07T09:32:51;11.43;;;5.03;;
39140;SDS011;24875;48.436;10.298;2024-01-07T09:35:17;10.40;;;4.23;;
39140;SDS011;24875;48.436;10.298;2024-01-07T09:37:44;9.37;;;3.93;;
39140;SDS011;24875;48.436;10.298;2024-01-07T09:40:11;11.53;;;4.20;;
39140;SDS011;24875;48.436;10.298;2024-01-07T09:42:38;9.60;;;4.13;;
39140;SDS011;24875;48.436;10.298;2024-01-07T09:45:05;8.60;;;4.00;;
39140;SDS011;24875;48.436;10.298;2024-01-07T09:47:32;7.67;;;3.80;;
39140;SDS011;24875;48.436;10.298;2024-01-07T09:50:02;10.73;;;4.33;;
39140;SDS011;24875;48.436;10.298;2024-01-07T09:52:30;9.27;;;3.97;;
39140;SDS011;24875;48.436;10.298;2024-01-07T09:55:00;11.30;;;4.90;;
39140;SDS011;24875;48.436;10.298;2024-01-07T09:57:29;14.13;;;4.83;;
39140;SDS011;24875;48.436;10.298;2024-01-07T09:59:56;9.83;;;3.63;;
39140;SDS011;24875;48.436;10.298;2024-01-07T10:02:22;8.43;;;3.73;;
39140;SDS011;24875;48.436;10.298;2024-01-07T10:04:49;9.63;;;3.70;;
39140;SDS011;24875;48.436;10.298;2024-01-07T10:07:17;6.67;;;3.47;;
39140;SDS011;24875;48.436;10.298;2024-01-07T10:09:44;9.90;;;5.23;;
39140;SDS011;24875;48.436;10.298;2024-01-07T10:12:10;9.23;;;4.47;;
39140;SDS011;24875;48.436;10.298;2024-01-07T10:14:38;11.80;;;5.03;;
39140;SDS011;24875;48.436;10.298;2024-01-07T10:17:13;7.83;;;4.07;;
39140;SDS011;24875;48.436;10.298;2024-01-07T10:19:43;11.33;;;5.00;;
39140;SDS011;24875;48.436;10.298;2024-01-07T10:22:12;8.17;;;4.17;;
39140;SDS011;24875;48.436;10.298;2024-01-07T10:24:40;10.20;;;4.10;;
39140;SDS011;24875;48.436;10.298;2024-01-07T10:27:08;12.10;;;4.83;;
39140;SDS011;24875;48.436;10.298;2024-01-07T10:29:35;14.00;;;4.90;;
39140;SDS011;24875;48.436;10.298;2024-01-07T10:32:02;14.43;;;5.20;;
39140;SDS011;24875;48.436;10.298;2024-01-07T10:34:30;13.47;;;4.77;;
39140;SDS011;24875;48.436;10.298;2024-01-07T10:36:58;8.93;;;3.87;;
39140;SDS011;24875;48.436;10.298;2024-01-07T10:39:25;12.07;;;4.27;;
39140;SDS011;24875;48.436;10.298;2024-01-07T10:41:54;13.00;;;4.70;;
39140;SDS011;24875;48.436;10.298;2024-01-07T10:44:23;8.13;;;3.53;;
39140;SDS011;24875;48.436;10.298;2024-01-07T10:46:51;10.00;;;4.97;;
39140;SDS011;24875;48.436;10.298;2024-01-07T10:49:20;10.73;;;4.17;;
39140;SDS011;24875;48.436;10.298;2024-01-07T10:51:49;12.70;;;4.80;;
39140;SDS011;24875;48.436;10.298;2024-01-07T10:54:28;12.17;;;4.70;;
39140;SDS011;24875;48.436;10.298;2024-01-07T10:56:57;9.87;;;4.23;;
39140;SDS011;24875;48.436;10.298;2024-01-07T10:59:26;11.10;;;4.23;;
39140;SDS011;24875;48.436;10.298;2024-01-07T11:01:54;14.50;;;4.53;;
39140;SDS011;24875;48.436;10.298;2024-01-07T11:04:22;11.50;;;4.27;;
39140;SDS011;24875;48.436;10.298;2024-01-07T11:06:55;11.07;;;4.97;;
39140;SDS011;24875;48.436;10.298;2024-01-07T11:09:28;10.23;;;4.70;;
39140;SDS011;24875;48.436;10.298;2024-01-07T11:12:02;12.53;;;4.77;;
39140;SDS011;24875;48.436;10.298;2024-01-07T11:14:36;9.90;;;3.93;;
39140;SDS011;24875;48.436;10.298;2024-01-07T11:17:04;12.37;;;4.30;;
39140;SDS011;24875;48.436;10.298;2024-01-07T11:19:31;8.43;;;4.00;;
39140;SDS011;24875;48.436;10.298;2024-01-07T11:24:50;10.33;;;4.40;;
39140;SDS011;24875;48.436;10.298;2024-01-07T11:27:19;9.47;;;3.97;;
39140;SDS011;24875;48.436;10.298;2024-01-07T11:29:52;13.83;;;5.00;;
39140;SDS011;24875;48.436;10.298;2024-01-07T11:32:20;15.87;;;5.07;;
39140;SDS011;24875;48.436;10.298;2024-01-07T11:34:48;11.60;;;5.20;;
39140;SDS011;24875;48.436;10.298;2024-01-07T11:37:18;10.33;;;4.07;;
39140;SDS011;24875;48.436;10.298;2024-01-07T11:39:44;13.87;;;5.53;;
39140;SDS011;24875;48.436;10.298;2024-01-07T11:42:12;10.37;;;4.27;;
39140;SDS011;24875;48.436;10.298;2024-01-07T11:44:45;16.33;;;5.20;;
39140;SDS011;24875;48.436;10.298;2024-01-07T11:47:13;14.03;;;4.80;;
39140;SDS011;24875;48.436;10.298;2024-01-07T11:49:40;13.77;;;4.20;;
39140;SDS011;24875;48.436;10.298;2024-01-07T11:52:07;11.97;;;5.07;;
39140;SDS011;24875;48.436;10.298;2024-01-07T11:54:35;12.33;;;5.20;;
39140;SDS011;24875;48.436;10.298;2024-01-07T11:57:02;9.13;;;3.77;;
39140;SDS011;24875;48.436;10.298;2024-01-07T11:59:29;12.03;;;4.80;;
39140;SDS011;24875;48.436;10.298;2024-01-07T12:01:57;8.07;;;4.20;;
39140;SDS011;24875;48.436;10.298;2024-01-07T12:04:25;11.80;;;5.97;;
39140;SDS011;24875;48.436;10.298;2024-01-07T12:06:51;11.17;;;4.87;;
39140;SDS011;24875;48.436;10.298;2024-01-07T12:09:18;13.60;;;5.87;;
39140;SDS011;24875;48.436;10.298;2024-01-07T12:11:44;18.50;;;5.13;;
39140;SDS011;24875;48.436;10.298;2024-01-07T12:14:11;12.10;;;5.63;;
39140;SDS011;24875;48.436;10.298;2024-01-07T12:16:38;14.80;;;6.10;;
39140;SDS011;24875;48.436;10.298;2024-01-07T12:19:07;13.83;;;4.97;;
39140;SDS011;24875;48.436;10.298;2024-01-07T12:21:34;11.33;;;5.00;;
39140;SDS011;24875;48.436;10.298;2024-01-07T12:24:01;15.33;;;5.33;;
39140;SDS011;24875;48.436;10.298;2024-01-07T12:26:27;15.87;;;6.40;;
39140;SDS011;24875;48.436;10.298;2024-01-07T12:28:55;14.33;;;5.10;;
39140;SDS011;24875;48.436;10.298;2024-01-07T12:31:25;17.07;;;5.97;;
39140;SDS011;24875;48.436;10.298;2024-01-07T12:33:52;15.47;;;5.80;;
39140;SDS011;24875;48.436;10.298;2024-01-07T12:36:21;12.63;;;5.70;;
39140;SDS011;24875;48.436;10.298;2024-01-07T12:38:47;14.60;;;5.77;;
39140;SDS011;24875;48.436;10.298;2024-01-07T12:41:14;15.97;;;6.47;;
39140;SDS011;24875;48.436;10.298;2024-01-07T12:43:41;17.60;;;7.13;;
39140;SDS011;24875;48.436;10.298;2024-01-07T12:46:07;15.37;;;6.07;;
39140;SDS011;24875;48.436;10.298;2024-01-07T12:48:34;15.57;;;6.53;;
39140;SDS011;24875;48.436;10.298;2024-01-07T12:51:00;13.03;;;5.57;;
39140;SDS011;24875;48.436;10.298;2024-01-07T12:53:29;15.00;;;6.13;;
39140;SDS011;24875;48.436;10.298;2024-01-07T12:55:55;14.53;;;5.17;;
39140;SDS011;24875;48.436;10.298;2024-01-07T12:58:21;16.03;;;6.13;;
39140;SDS011;24875;48.436;10.298;2024-01-07T13:00:48;14.63;;;6.00;;
39140;SDS011;24875;48.436;10.298;2024-01-07T13:03:15;16.93;;;7.00;;
39140;SDS011;24875;48.436;10.298;2024-01-07T13:05:43;15.47;;;7.10;;
39140;SDS011;24875;48.436;10.298;2024-01-07T13:08:11;18.97;;;6.83;;
39140;SDS011;24875;48.436;10.298;2024-01-07T13:10:39;15.63;;;6.33;;
39140;SDS011;24875;48.436;10.298;2024-01-07T13:13:05;16.10;;;7.07;;
39140;SDS011;24875;48.436;10.298;2024-01-07T13:15:34;17.20;;;7.33;;
39140;SDS011;24875;48.436;10.298;2024-01-07T13:18:01;17.40;;;7.30;;
39140;SDS011;24875;48.436;10.298;2024-01-07T13:20:28;18.43;;;7.60;;
39140;SDS011;24875;48.436;10.298;2024-01-07T13:22:54;15.20;;;6.70;;
39140;SDS011;24875;48.436;10.298;2024-01-07T13:25:21;15.07;;;6.60;;
39140;SDS011;24875;48.436;10.298;2024-01-07T13:27:49;15.87;;;6.13;;
39140;SDS011;24875;48.436;10.298;2024-01-07T13:30:15;17.47;;;7.63;;
39140;SDS011;24875;48.436;10.298;2024-01-07T13:32:42;16.87;;;6.73;;
39140;SDS011;24875;48.436;10.298;2024-01-07T13:35:08;16.43;;;6.63;;
39140;SDS011;24875;48.436;10.298;2024-01-07T13:37:35;15.97;;;6.17;;
39140;SDS011;24875;48.436;10.298;2024-01-07T13:40:02;12.43;;;5.63;;
39140;SDS011;24875;48.436;10.298;2024-01-07T13:42:29;12.90;;;5.37;;
39140;SDS011;24875;48.436;10.298;2024-01-07T13:44:57;12.27;;;5.37;;
39140;SDS011;24875;48.436;10.298;2024-01-07T13:47:24;17.77;;;7.13;;
39140;SDS011;24875;48.436;10.298;2024-01-07T13:49:50;14.83;;;6.93;;
39140;SDS011;24875;48.436;10.298;2024-01-07T13:52:17;16.50;;;6.40;;
39140;SDS011;24875;48.436;10.298;2024-01-07T13:54:43;17.30;;;6.23;;
39140;SDS011;24875;48.436;10.298;2024-01-07T13:57:10;15.27;;;5.97;;
39140;SDS011;24875;48.436;10.298;2024-01-07T13:59:38;19.60;;;7.50;;
39140;SDS011;24875;48.436;10.298;2024-01-07T14:02:06;15.87;;;6.93;;
39140;SDS011;24875;48.436;10.298;2024-01-07T14:04:34;18.97;;;7.03;;
39140;SDS011;24875;48.436;10.298;2024-01-07T14:07:01;13.87;;;6.13;;
39140;SDS011;24875;48.436;10.298;2024-01-07T14:09:27;15.07;;;6.40;;
39140;SDS011;24875;48.436;10.298;2024-01-07T14:11:56;16.87;;;6.77;;
39140;SDS011;24875;48.436;10.298;2024-01-07T14:14:22;15.17;;;6.37;;
39140;SDS011;24875;48.436;10.298;2024-01-07T14:16:49;10.57;;;5.00;;
39140;SDS011;24875;48.436;10.298;2024-01-07T14:19:17;20.03;;;6.90;;
39140;SDS011;24875;48.436;10.298;2024-01-07T14:21:43;12.63;;;5.77;;
39140;SDS011;24875;48.436;10.298;2024-01-07T14:24:10;11.07;;;5.60;;
39140;SDS011;24875;48.436;10.298;2024-01-07T14:26:36;14.60;;;6.27;;